Time;durP1;ratioP1;P1;durP2;ratioP2;P2;SDS_P1;SDS_P2;PMS_P1;PMS_P2;Temp;Humidity;BMP_temperature;BMP_pressure;BME280_temperature;BME280_humidity;BME280_pressure;Samples;Min_cycle;Max_cycle;Signal;HPM_P1;HPM_P2
2022/03/27 00:01:57;;;;;;;11.67;10.00;;;12.60;72.70;;;;;;5028872;28;20236;-69
2022/03/27 00:04:23;;;;;;;15.97;10.73;;;12.60;72.80;;;;;;5026080;28;20598;-68
2022/03/27 00:06:49;;;;;;;13.30;10.50;;;12.60;72.70;;;;;;5025848;28;20248;-67
2022/03/27 00:09:15;;;;;;;11.43;9.60;;;12.60;73.10;;;;;;5027727;28;20719;-68
2022/03/27 00:11:41;;;;;;;12.50;9.70;;;12.60;73.30;;;;;;5033370;28;20254;-67
2022/03/27 00:14:07;;;;;;;19.20;10.67;;;12.50;73.10;;;;;;5043309;28;20490;-69
2022/03/27 00:16:34;;;;;;;14.40;8.83;;;12.50;73.20;;;;;;5046651;28;20220;-68
2022/03/27 00:19:00;;;;;;;12.30;8.90;;;12.50;73.30;;;;;;5041085;28;20216;-69
2022/03/27 00:21:27;;;;;;;11.30;8.57;;;12.50;73.50;;;;;;5026981;28;20466;-68
2022/03/27 00:23:53;;;;;;;14.20;9.60;;;12.40;73.50;;;;;;5041109;28;20508;-67
2022/03/27 00:26:21;;;;;;;13.00;8.83;;;12.40;73.50;;;;;;5046869;28;20540;-68
2022/03/27 00:28:48;;;;;;;11.90;9.03;;;12.40;73.70;;;;;;5045394;28;20446;-67
2022/03/27 00:31:14;;;;;;;14.97;10.10;;;12.30;74.10;;;;;;5032573;28;20466;-69
2022/03/27 00:33:42;;;;;;;15.23;9.40;;;12.30;74.30;;;;;;5025945;28;20462;-67
2022/03/27 00:36:10;;;;;;;14.03;10.17;;;12.30;73.90;;;;;;5041959;28;20543;-68
2022/03/27 00:38:37;;;;;;;11.83;9.20;;;12.30;73.90;;;;;;5037092;28;20487;-69
2022/03/27 00:41:04;;;;;;;12.57;8.80;;;12.20;74.30;;;;;;5042420;28;20443;-69
2022/03/27 00:43:30;;;;;;;12.93;9.20;;;12.20;74.20;;;;;;5034731;28;20475;-70
2022/03/27 00:45:56;;;;;;;13.73;9.53;;;12.20;74.40;;;;;;5039270;28;20465;-71
2022/03/27 00:48:22;;;;;;;11.03;8.70;;;12.10;74.70;;;;;;5042265;28;20303;-68
2022/03/27 00:50:50;;;;;;;13.50;8.83;;;12.10;74.40;;;;;;5035353;28;20723;-68
2022/03/27 00:53:17;;;;;;;13.17;9.17;;;12.10;75.20;;;;;;5035755;28;20562;-69
2022/03/27 00:55:45;;;;;;;14.77;8.80;;;12.00;75.40;;;;;;5023949;28;20486;-68
2022/03/27 00:58:11;;;;;;;13.40;8.63;;;12.00;75.30;;;;;;5037176;28;20457;-67
2022/03/27 01:00:43;;;;;;;14.50;9.03;;;12.00;75.30;;;;;;5038267;28;20460;-69
2022/03/27 01:03:11;;;;;;;18.50;8.93;;;12.00;75.50;;;;;;5034493;28;21000;-69
2022/03/27 01:05:37;;;;;;;12.80;8.60;;;11.90;75.60;;;;;;5037484;28;20974;-69
2022/03/27 01:08:08;;;;;;;16.27;9.20;;;11.90;75.50;;;;;;5035114;28;20463;-70
2022/03/27 01:10:35;;;;;;;14.47;7.83;;;11.90;75.70;;;;;;5033335;28;20450;-68
2022/03/27 01:13:04;;;;;;;15.30;9.30;;;11.90;76.20;;;;;;5032151;28;21000;-69
2022/03/27 01:15:33;;;;;;;14.53;9.03;;;11.80;76.00;;;;;;5035079;28;20454;-68
2022/03/27 01:17:59;;;;;;;13.80;8.80;;;11.90;76.10;;;;;;5036650;28;20450;-69
2022/03/27 01:20:36;;;;;;;11.50;7.97;;;11.80;76.20;;;;;;5038031;28;20458;-69
2022/03/27 01:23:08;;;;;;;17.57;8.67;;;11.80;76.20;;;;;;5037713;28;20232;-69
2022/03/27 01:25:33;;;;;;;14.23;8.60;;;11.80;76.60;;;;;;5032662;28;20457;-69
2022/03/27 01:27:59;;;;;;;12.83;7.70;;;11.80;76.60;;;;;;5033900;28;20434;-69
2022/03/27 01:30:25;;;;;;;13.10;8.70;;;11.80;76.40;;;;;;5032313;28;20205;-70
2022/03/27 01:32:52;;;;;;;12.20;8.07;;;11.80;76.70;;;;;;5017718;28;20231;-68
2022/03/27 01:35:19;;;;;;;15.17;8.90;;;11.80;76.80;;;;;;5029374;28;20212;-69
2022/03/27 01:37:48;;;;;;;10.03;7.43;;;11.80;76.40;;;;;;5034722;28;20482;-67
2022/03/27 01:40:16;;;;;;;14.17;7.87;;;11.80;76.60;;;;;;5038762;28;20477;-69
2022/03/27 01:42:42;;;;;;;11.60;6.93;;;11.70;76.50;;;;;;5013831;28;20485;-69
2022/03/27 01:45:08;;;;;;;10.47;7.37;;;11.70;76.60;;;;;;5044104;28;20444;-69
2022/03/27 01:47:34;;;;;;;11.30;6.70;;;11.70;76.60;;;;;;5011682;28;20229;-69
2022/03/27 01:50:04;;;;;;;12.67;8.77;;;11.70;76.40;;;;;;5050856;28;20446;-67
2022/03/27 01:52:30;;;;;;;11.63;7.33;;;11.70;76.60;;;;;;5031522;28;20223;-69
2022/03/27 01:54:55;;;;;;;15.20;7.60;;;11.70;77.00;;;;;;5024874;28;20898;-68
2022/03/27 01:57:21;;;;;;;11.50;7.47;;;11.60;76.90;;;;;;5021551;28;20227;-69
2022/03/27 01:59:47;;;;;;;13.40;8.03;;;11.60;77.00;;;;;;5027499;28;20320;-69
2022/03/27 02:02:13;;;;;;;14.40;9.00;;;11.60;77.20;;;;;;5024661;28;20757;-69
2022/03/27 02:04:39;;;;;;;12.80;8.23;;;11.60;77.30;;;;;;5042127;28;20225;-69
2022/03/27 02:07:04;;;;;;;18.50;9.00;;;11.60;77.50;;;;;;5033244;28;20295;-68
2022/03/27 02:09:30;;;;;;;10.50;7.93;;;11.50;77.90;;;;;;5034367;28;20503;-69
2022/03/27 02:11:56;;;;;;;14.40;8.30;;;11.50;77.90;;;;;;5037683;28;20269;-68
2022/03/27 02:14:22;;;;;;;14.47;9.67;;;11.50;77.90;;;;;;5033991;28;20243;-70
2022/03/27 02:16:47;;;;;;;18.50;8.90;;;11.50;78.20;;;;;;5038378;28;20230;-69
2022/03/27 02:19:13;;;;;;;15.73;9.83;;;11.40;78.10;;;;;;5012917;28;20209;-71
2022/03/27 02:21:41;;;;;;;12.70;8.23;;;11.40;78.10;;;;;;5027335;28;20232;-68
2022/03/27 02:24:08;;;;;;;15.23;9.50;;;11.40;78.00;;;;;;5037491;28;20513;-70
2022/03/27 02:26:34;;;;;;;16.23;9.50;;;11.40;79.20;;;;;;5029092;28;20522;-68
2022/03/27 02:29:01;;;;;;;14.63;9.37;;;11.40;78.80;;;;;;5038866;28;20541;-68
2022/03/27 02:31:27;;;;;;;14.57;9.97;;;11.30;78.60;;;;;;5034507;28;20451;-69
2022/03/27 02:33:52;;;;;;;16.90;8.57;;;11.40;78.70;;;;;;5030406;28;20455;-69
2022/03/27 02:36:18;;;;;;;13.43;9.43;;;11.30;78.60;;;;;;5038193;28;20301;-69
2022/03/27 02:38:44;;;;;;;17.67;9.77;;;11.30;79.00;;;;;;5039261;28;20216;-69
2022/03/27 02:41:11;;;;;;;12.00;8.30;;;11.30;79.10;;;;;;5033854;28;20451;-68
2022/03/27 02:43:40;;;;;;;13.20;9.87;;;11.20;78.90;;;;;;5010543;28;20232;-67
2022/03/27 02:46:07;;;;;;;14.80;9.07;;;11.20;78.80;;;;;;5028115;28;20501;-69
2022/03/27 02:48:33;;;;;;;13.57;8.33;;;11.20;79.20;;;;;;5043506;28;20456;-69
2022/03/27 02:50:59;;;;;;;13.40;8.30;;;11.20;79.00;;;;;;5029778;28;20505;-70
2022/03/27 02:53:25;;;;;;;14.57;9.03;;;11.20;79.50;;;;;;5011958;28;20282;-68
2022/03/27 02:55:50;;;;;;;14.60;9.00;;;11.10;79.30;;;;;;5025579;28;20281;-68
2022/03/27 02:58:16;;;;;;;13.50;8.20;;;11.10;80.00;;;;;;5030678;28;20264;-67
2022/03/27 03:00:42;;;;;;;13.20;7.90;;;11.10;80.80;;;;;;5022737;28;20296;-68
2022/03/27 03:03:09;;;;;;;14.33;9.10;;;11.00;80.00;;;;;;5048413;28;20460;-67
2022/03/27 03:05:38;;;;;;;12.37;7.60;;;11.10;80.10;;;;;;5043045;28;20534;-69
2022/03/27 03:08:06;;;;;;;12.80;7.93;;;11.00;79.50;;;;;;5028558;28;20455;-69
2022/03/27 03:10:32;;;;;;;16.83;8.30;;;11.00;79.80;;;;;;5024795;28;20459;-68
2022/03/27 03:12:58;;;;;;;15.13;7.80;;;11.00;80.10;;;;;;5041581;28;20446;-69
2022/03/27 03:15:24;;;;;;;10.53;7.17;;;11.00;80.20;;;;;;5027365;28;20455;-69
2022/03/27 03:17:50;;;;;;;11.67;7.50;;;10.90;80.10;;;;;;5036325;28;20252;-70
2022/03/27 03:20:17;;;;;;;16.60;8.43;;;10.90;79.90;;;;;;5033886;28;20527;-70
2022/03/27 03:22:43;;;;;;;14.13;7.33;;;10.90;80.30;;;;;;5045900;28;20228;-68
2022/03/27 03:25:09;;;;;;;11.90;7.73;;;10.90;80.80;;;;;;5031385;28;20487;-69
2022/03/27 03:27:36;;;;;;;12.53;7.83;;;10.90;80.00;;;;;;5028548;28;20476;-68
2022/03/27 03:30:06;;;;;;;11.53;7.83;;;10.80;79.90;;;;;;5036618;28;20235;-67
2022/03/27 03:32:33;;;;;;;13.80;7.40;;;10.80;80.10;;;;;;5035680;28;20467;-68
2022/03/27 03:34:59;;;;;;;11.40;7.30;;;10.80;79.90;;;;;;5034183;28;20508;-68
2022/03/27 03:37:25;;;;;;;14.27;7.90;;;10.80;80.20;;;;;;5012375;28;20499;-67
2022/03/27 03:39:50;;;;;;;12.40;7.47;;;10.80;80.20;;;;;;5048820;28;20231;-68
2022/03/27 03:42:16;;;;;;;10.90;7.47;;;10.80;80.10;;;;;;5032788;28;20233;-68
2022/03/27 03:44:43;;;;;;;10.77;7.87;;;10.80;80.40;;;;;;5052310;28;20224;-69
2022/03/27 03:47:10;;;;;;;12.97;8.20;;;10.80;80.30;;;;;;5042474;28;20366;-69
2022/03/27 03:49:37;;;;;;;14.50;8.10;;;10.80;80.20;;;;;;5044669;28;20982;-68
2022/03/27 03:52:03;;;;;;;14.70;7.40;;;10.70;80.30;;;;;;5046603;28;21043;-69
2022/03/27 03:54:29;;;;;;;12.70;7.97;;;10.70;80.30;;;;;;5027491;28;20458;-71
2022/03/27 03:56:54;;;;;;;10.23;7.13;;;10.70;80.50;;;;;;5020047;28;20455;-72
2022/03/27 03:59:20;;;;;;;13.37;8.50;;;10.70;80.60;;;;;;5038660;28;20860;-70
2022/03/27 04:01:46;;;;;;;11.60;7.87;;;10.70;80.70;;;;;;5030006;28;20711;-71
2022/03/27 04:04:11;;;;;;;9.27;6.53;;;10.70;81.30;;;;;;5026470;28;20227;-71
2022/03/27 04:06:37;;;;;;;14.00;7.87;;;10.70;81.30;;;;;;5029481;28;20231;-72
2022/03/27 04:09:03;;;;;;;13.70;8.20;;;10.60;81.00;;;;;;5030576;28;20216;-69
2022/03/27 04:11:28;;;;;;;15.23;8.23;;;10.60;81.20;;;;;;5027370;28;20217;-72
2022/03/27 04:13:54;;;;;;;12.03;7.60;;;10.60;81.50;;;;;;5033479;28;20220;-71
2022/03/27 04:16:20;;;;;;;12.57;7.60;;;10.60;81.30;;;;;;5047799;28;20768;-71
2022/03/27 04:18:47;;;;;;;14.30;8.13;;;10.60;81.60;;;;;;5040531;28;20217;-72
2022/03/27 04:21:12;;;;;;;12.10;8.80;;;10.50;81.20;;;;;;5027464;28;20219;-71
2022/03/27 04:23:38;;;;;;;13.77;8.80;;;10.50;82.00;;;;;;5038817;28;20829;-72
2022/03/27 04:26:04;;;;;;;11.87;7.70;;;10.50;81.40;;;;;;5005256;28;20225;-72
2022/03/27 04:28:30;;;;;;;11.00;6.47;;;10.50;81.50;;;;;;5022905;28;20259;-71
2022/03/27 04:30:56;;;;;;;12.67;7.63;;;10.40;82.10;;;;;;5029454;28;20450;-71
2022/03/27 04:33:22;;;;;;;15.53;8.20;;;10.40;82.10;;;;;;5025325;28;20471;-71
2022/03/27 04:35:47;;;;;;;13.43;8.00;;;10.40;82.20;;;;;;5046307;28;20232;-72
2022/03/27 04:38:14;;;;;;;12.63;7.90;;;10.40;82.10;;;;;;5035957;28;20230;-70
2022/03/27 04:40:40;;;;;;;11.93;7.17;;;10.40;81.80;;;;;;5035561;28;20227;-71
2022/03/27 04:43:06;;;;;;;13.53;7.50;;;10.40;81.70;;;;;;5033357;28;20526;-71
2022/03/27 04:45:32;;;;;;;14.50;7.37;;;10.40;82.20;;;;;;5039555;28;20692;-71
2022/03/27 04:47:58;;;;;;;13.77;8.07;;;10.40;83.00;;;;;;5039996;28;20982;-70
2022/03/27 04:50:24;;;;;;;9.97;7.10;;;10.30;82.10;;;;;;5037635;28;20465;-71
2022/03/27 04:52:50;;;;;;;10.13;6.53;;;10.30;82.30;;;;;;5035124;28;20231;-70
2022/03/27 04:55:15;;;;;;;12.60;7.60;;;10.30;82.00;;;;;;5033769;28;20216;-72
2022/03/27 04:57:42;;;;;;;12.33;7.47;;;10.30;82.50;;;;;;5025461;28;20723;-69
2022/03/27 05:00:14;;;;;;;14.17;8.40;;;10.30;81.90;;;;;;5035462;28;20223;-68
2022/03/27 05:02:41;;;;;;;11.43;7.03;;;10.30;82.00;;;;;;5018266;28;20557;-69
2022/03/27 05:05:10;;;;;;;16.23;8.03;;;10.20;82.50;;;;;;5047019;28;20457;-69
2022/03/27 05:07:37;;;;;;;15.80;7.33;;;10.20;82.00;;;;;;5012445;28;20970;-68
2022/03/27 05:10:04;;;;;;;13.87;7.60;;;10.20;82.70;;;;;;5036634;28;20472;-69
2022/03/27 05:12:30;;;;;;;11.63;7.27;;;10.20;82.40;;;;;;5026160;28;20458;-70
2022/03/27 05:14:56;;;;;;;14.53;7.87;;;10.20;83.00;;;;;;5028772;28;20553;-69
2022/03/27 05:17:21;;;;;;;15.10;7.80;;;10.10;82.40;;;;;;5032504;28;20224;-69
2022/03/27 05:19:47;;;;;;;13.03;7.47;;;10.10;82.80;;;;;;5032604;28;20256;-68
2022/03/27 05:22:13;;;;;;;11.47;7.40;;;10.10;82.80;;;;;;5019172;28;20229;-69
2022/03/27 05:24:39;;;;;;;12.87;7.57;;;10.10;82.90;;;;;;5037424;28;20270;-69
2022/03/27 05:27:05;;;;;;;15.37;8.83;;;10.10;82.80;;;;;;5038619;28;20509;-70
2022/03/27 05:29:31;;;;;;;14.83;7.50;;;10.00;82.90;;;;;;5040371;28;20217;-69
2022/03/27 05:31:58;;;;;;;13.60;7.10;;;10.00;82.70;;;;;;5008160;28;20456;-70
2022/03/27 05:34:24;;;;;;;12.43;7.60;;;10.00;82.90;;;;;;5042090;28;20227;-67
2022/03/27 05:36:50;;;;;;;12.20;7.17;;;10.00;83.80;;;;;;5038329;28;20451;-68
2022/03/27 05:39:17;;;;;;;12.90;8.00;;;9.90;85.20;;;;;;5015778;28;20448;-69
2022/03/27 05:41:44;;;;;;;12.77;7.80;;;9.90;85.00;;;;;;5043807;28;20326;-68
2022/03/27 05:44:09;;;;;;;13.00;7.87;;;9.90;85.00;;;;;;5032853;28;20451;-71
2022/03/27 05:46:35;;;;;;;13.83;7.03;;;9.90;84.70;;;;;;5031610;28;20994;-67
2022/03/27 05:49:01;;;;;;;16.17;7.20;;;9.90;84.70;;;;;;5032148;28;20235;-69
2022/03/27 05:51:27;;;;;;;13.43;7.70;;;9.90;85.00;;;;;;5035645;28;20331;-67
2022/03/27 05:53:52;;;;;;;13.20;6.87;;;9.90;84.90;;;;;;5040122;28;20224;-67
2022/03/27 05:56:18;;;;;;;12.97;7.03;;;9.90;85.30;;;;;;5035704;28;20721;-68
2022/03/27 05:58:44;;;;;;;11.57;7.17;;;9.90;85.10;;;;;;5026341;28;20207;-69
2022/03/27 06:01:09;;;;;;;10.30;6.83;;;9.90;86.00;;;;;;5035652;28;20673;-69
2022/03/27 06:03:35;;;;;;;10.40;6.57;;;9.90;85.00;;;;;;5025657;28;20228;-67
2022/03/27 06:06:03;;;;;;;12.40;7.77;;;9.90;85.50;;;;;;5031115;28;20310;-69
2022/03/27 06:08:29;;;;;;;14.90;7.40;;;9.80;85.70;;;;;;5024919;28;20569;-69
2022/03/27 06:10:54;;;;;;;12.07;7.33;;;9.80;85.40;;;;;;5025481;28;20458;-70
2022/03/27 06:13:20;;;;;;;11.53;6.90;;;9.90;85.60;;;;;;5035112;28;20230;-69
2022/03/27 06:15:47;;;;;;;12.33;7.50;;;9.90;85.50;;;;;;5040663;28;20274;-69
2022/03/27 06:18:12;;;;;;;11.33;6.93;;;9.90;85.30;;;;;;5022916;28;20824;-68
2022/03/27 06:20:40;;;;;;;14.10;8.00;;;9.90;85.50;;;;;;5026952;28;20463;-69
2022/03/27 06:23:09;;;;;;;14.93;7.03;;;9.90;86.40;;;;;;5037903;28;20254;-69
2022/03/27 06:25:35;;;;;;;12.60;7.40;;;9.90;86.30;;;;;;5028933;28;20459;-68
2022/03/27 06:28:01;;;;;;;15.03;8.30;;;9.90;86.20;;;;;;5020352;28;20467;-69
2022/03/27 06:30:29;;;;;;;10.10;7.10;;;9.90;86.20;;;;;;5019559;28;20475;-70
2022/03/27 06:32:55;;;;;;;15.27;8.73;;;9.90;86.20;;;;;;5021857;28;20456;-69
2022/03/27 06:35:23;;;;;;;11.93;7.43;;;9.90;86.00;;;;;;5032185;28;20478;-68
2022/03/27 06:37:50;;;;;;;17.60;11.23;;;9.90;86.10;;;;;;5027840;28;20755;-69
2022/03/27 06:40:16;;;;;;;25.37;14.93;;;9.90;86.70;;;;;;5028528;28;20457;-69
2022/03/27 06:42:44;;;;;;;31.70;17.70;;;9.90;86.50;;;;;;5042737;28;20512;-70
2022/03/27 06:45:12;;;;;;;52.43;22.80;;;9.90;87.00;;;;;;5045602;28;20481;-71
2022/03/27 06:47:38;;;;;;;56.63;27.90;;;10.00;85.80;;;;;;5009781;28;20865;-68
2022/03/27 06:50:06;;;;;;;51.40;26.60;;;10.00;86.00;;;;;;5039813;28;20443;-68
2022/03/27 06:52:33;;;;;;;45.93;25.27;;;10.00;85.90;;;;;;5030631;28;20462;-69
2022/03/27 06:54:59;;;;;;;48.83;24.83;;;10.00;85.80;;;;;;5037776;28;20475;-67
2022/03/27 06:57:24;;;;;;;48.13;23.30;;;10.00;86.10;;;;;;5023354;28;20452;-68
2022/03/27 07:05:22;;;;;;;39.07;21.30;;;10.10;86.80;;;;;;5019487;28;20469;-69
2022/03/27 07:07:48;;;;;;;41.60;21.57;;;10.10;86.60;;;;;;5041444;28;20458;-70
2022/03/27 07:10:14;;;;;;;43.60;20.63;;;10.20;88.10;;;;;;5044018;28;20538;-69
2022/03/27 07:12:39;;;;;;;38.77;20.00;;;10.20;88.10;;;;;;5033834;28;20451;-69
2022/03/27 07:15:07;;;;;;;33.90;17.67;;;10.30;88.40;;;;;;5040707;28;20220;-67
2022/03/27 07:17:33;;;;;;;26.97;13.93;;;10.30;89.10;;;;;;5008665;28;20220;-67
2022/03/27 07:19:58;;;;;;;21.30;12.03;;;10.40;88.90;;;;;;5027644;28;20446;-68
2022/03/27 07:22:25;;;;;;;24.27;11.80;;;10.40;90.00;;;;;;5028280;28;20470;-68
2022/03/27 07:24:51;;;;;;;20.87;11.53;;;10.50;89.50;;;;;;5026462;28;20225;-70
2022/03/27 07:27:16;;;;;;;13.27;9.23;;;10.60;90.70;;;;;;5027744;28;20488;-69
2022/03/27 07:29:42;;;;;;;16.13;7.77;;;10.70;90.90;;;;;;5034223;28;20358;-67
2022/03/27 07:32:10;;;;;;;11.97;8.07;;;10.80;91.40;;;;;;5039338;28;20221;-66
2022/03/27 07:34:36;;;;;;;16.10;8.30;;;10.80;91.90;;;;;;5053970;28;20247;-68
2022/03/27 07:37:03;;;;;;;16.00;8.40;;;10.90;91.70;;;;;;5029563;28;20475;-67
2022/03/27 07:39:29;;;;;;;12.77;7.53;;;11.00;92.20;;;;;;5030216;28;20221;-69
2022/03/27 07:41:55;;;;;;;14.10;8.73;;;11.10;92.90;;;;;;5029001;28;20487;-70
2022/03/27 07:44:21;;;;;;;13.30;8.13;;;11.20;93.10;;;;;;5036600;28;20483;-68
2022/03/27 07:46:48;;;;;;;14.23;8.07;;;11.30;93.20;;;;;;5031580;28;20758;-70
2022/03/27 07:49:14;;;;;;;11.90;7.73;;;11.40;93.40;;;;;;5024214;28;20208;-70
2022/03/27 07:51:40;;;;;;;12.17;8.20;;;11.50;94.10;;;;;;5038463;28;20456;-68
2022/03/27 07:54:06;;;;;;;12.07;7.27;;;11.60;94.20;;;;;;5036893;28;20216;-68
2022/03/27 07:56:32;;;;;;;11.83;7.63;;;11.70;94.60;;;;;;5044428;28;20444;-69
2022/03/27 07:58:58;;;;;;;12.47;8.50;;;11.80;94.90;;;;;;5049503;28;20640;-69
2022/03/27 08:01:24;;;;;;;13.70;8.10;;;11.90;95.10;;;;;;5028597;28;20542;-69
2022/03/27 08:03:50;;;;;;;13.50;8.30;;;12.00;95.50;;;;;;5026168;28;20226;-70
2022/03/27 08:06:16;;;;;;;14.20;9.00;;;12.20;95.80;;;;;;5044441;28;20454;-69
2022/03/27 08:08:42;;;;;;;12.67;8.83;;;12.30;96.00;;;;;;5030154;28;20455;-68
2022/03/27 08:11:08;;;;;;;16.97;8.63;;;12.40;95.80;;;;;;5036767;28;20449;-67
2022/03/27 08:13:34;;;;;;;13.77;9.27;;;12.40;95.90;;;;;;5027758;28;20454;-67
2022/03/27 08:16:00;;;;;;;13.73;8.87;;;12.60;96.10;;;;;;5031801;28;20953;-70
2022/03/27 08:18:26;;;;;;;17.20;9.67;;;12.70;96.50;;;;;;5008655;28;20224;-69
2022/03/27 08:20:52;;;;;;;14.53;9.67;;;12.80;96.90;;;;;;5030123;28;20247;-69
2022/03/27 08:23:18;;;;;;;14.00;8.60;;;13.00;96.80;;;;;;5037425;28;20466;-68
2022/03/27 08:28:28;;;;;;;13.13;8.83;;;13.20;96.70;;;;;;5033246;28;20264;-70
2022/03/27 08:30:54;;;;;;;15.33;9.10;;;13.30;96.60;;;;;;5039836;28;20493;-69
2022/03/27 08:33:20;;;;;;;14.87;10.40;;;13.40;96.70;;;;;;5020384;28;20282;-68
2022/03/27 08:35:46;;;;;;;14.80;9.97;;;13.50;96.90;;;;;;5027095;28;20227;-69
2022/03/27 08:38:13;;;;;;;13.50;9.13;;;13.60;96.90;;;;;;5012810;28;20221;-67
2022/03/27 08:40:40;;;;;;;15.37;9.57;;;13.70;97.00;;;;;;5043310;28;20222;-69
2022/03/27 08:43:11;;;;;;;14.73;9.40;;;13.80;96.70;;;;;;5028307;28;20459;-70
2022/03/27 08:45:37;;;;;;;16.10;8.50;;;14.00;96.70;;;;;;5028093;28;20467;-69
2022/03/27 08:48:04;;;;;;;13.30;10.03;;;14.10;96.80;;;;;;5025800;28;20465;-67
2022/03/27 08:50:39;;;;;;;18.63;10.50;;;14.10;96.30;;;;;;5034248;28;20456;-66
2022/03/27 08:53:07;;;;;;;15.87;10.00;;;14.10;96.10;;;;;;5036989;28;20460;-67
2022/03/27 08:55:46;;;;;;;14.20;9.30;;;14.10;96.00;;;;;;5029398;28;20455;-70
2022/03/27 08:58:12;;;;;;;14.20;8.90;;;14.20;96.30;;;;;;5038836;28;20508;-69
2022/03/27 09:00:39;;;;;;;15.70;9.40;;;14.30;96.20;;;;;;5031595;28;20464;-68
2022/03/27 09:03:06;;;;;;;14.87;9.27;;;14.50;96.40;;;;;;5010000;28;20474;-69
2022/03/27 09:05:36;;;;;;;12.40;8.80;;;14.60;96.10;;;;;;5036454;28;20509;-69
2022/03/27 09:08:09;;;;;;;15.37;10.63;;;14.70;96.00;;;;;;5034395;28;20581;-69
2022/03/27 09:10:36;;;;;;;16.03;9.60;;;14.70;96.00;;;;;;5023899;28;20490;-67
2022/03/27 09:13:03;;;;;;;16.90;10.17;;;14.80;95.90;;;;;;5025690;28;20471;-69
2022/03/27 09:15:28;;;;;;;15.60;9.67;;;14.90;95.90;;;;;;5028295;28;20486;-68
2022/03/27 09:18:08;;;;;;;12.23;8.77;;;15.00;95.80;;;;;;5026792;28;20487;-68
2022/03/27 09:20:46;;;;;;;11.33;8.63;;;15.10;96.00;;;;;;5027753;28;20231;-69
2022/03/27 09:23:13;;;;;;;17.77;9.93;;;15.20;96.10;;;;;;5015822;28;20965;-67
2022/03/27 09:25:44;;;;;;;15.53;9.80;;;15.30;96.20;;;;;;5048297;28;20542;-68
2022/03/27 09:28:10;;;;;;;16.83;10.27;;;15.40;96.00;;;;;;5029400;28;20459;-69
2022/03/27 09:30:36;;;;;;;18.20;10.30;;;15.50;95.80;;;;;;5030088;28;20547;-70
2022/03/27 09:33:02;;;;;;;19.33;10.70;;;15.50;95.70;;;;;;5009142;28;20566;-67
2022/03/27 09:35:28;;;;;;;15.83;10.37;;;15.60;95.30;;;;;;5027274;28;20601;-69
2022/03/27 09:37:54;;;;;;;11.37;8.80;;;15.70;95.20;;;;;;5024703;28;20474;-68
2022/03/27 09:40:20;;;;;;;15.50;9.77;;;15.80;95.30;;;;;;5007416;28;20221;-69
2022/03/27 09:42:47;;;;;;;13.20;9.33;;;15.80;95.20;;;;;;5027322;28;20220;-69
2022/03/27 09:45:19;;;;;;;15.50;9.17;;;15.90;94.90;;;;;;5023813;28;20458;-69
2022/03/27 09:47:48;;;;;;;15.00;10.03;;;15.90;95.00;;;;;;5027450;28;20498;-68
2022/03/27 09:50:32;;;;;;;14.53;9.80;;;15.90;94.30;;;;;;5028948;28;20580;-67
2022/03/27 09:53:17;;;;;;;20.20;11.37;;;16.00;94.90;;;;;;5031661;28;20486;-68
2022/03/27 09:55:42;;;;;;;13.27;9.17;;;16.00;94.50;;;;;;5035250;28;20964;-70
2022/03/27 09:58:09;;;;;;;14.93;9.43;;;16.10;94.80;;;;;;5032344;28;20475;-68
2022/03/27 10:00:35;;;;;;;15.60;9.33;;;16.20;94.80;;;;;;5028294;28;20220;-70
2022/03/27 10:03:12;;;;;;;16.00;10.60;;;16.30;94.50;;;;;;5033432;28;20553;-69
2022/03/27 10:05:38;;;;;;;15.30;10.03;;;16.20;93.60;;;;;;5027595;28;20470;-67
2022/03/27 10:08:04;;;;;;;13.57;9.57;;;16.20;94.00;;;;;;5023577;28;21153;-67
2022/03/27 10:10:30;;;;;;;11.97;9.17;;;16.40;94.50;;;;;;5031516;28;20547;-67
2022/03/27 10:12:57;;;;;;;12.57;8.00;;;16.50;94.40;;;;;;5031172;28;20274;-68
2022/03/27 10:15:26;;;;;;;10.50;7.90;;;16.70;94.30;;;;;;5030717;28;20278;-67
2022/03/27 10:17:56;;;;;;;10.50;7.90;;;16.80;94.50;;;;;;5017072;28;20973;-69
2022/03/27 10:20:27;;;;;;;12.13;8.63;;;16.90;94.00;;;;;;5025886;28;20475;-70
2022/03/27 10:23:20;;;;;;;13.70;9.00;;;17.00;93.80;;;;;;5044007;28;20921;-69
2022/03/27 10:25:48;;;;;;;12.93;8.60;;;17.00;93.70;;;;;;5029996;28;20545;-68
2022/03/27 10:28:16;;;;;;;11.70;7.40;;;17.20;93.60;;;;;;5014256;28;20446;-70
2022/03/27 10:30:43;;;;;;;10.90;7.67;;;17.20;93.80;;;;;;5031481;28;20451;-69
2022/03/27 10:33:10;;;;;;;13.40;8.63;;;17.30;93.50;;;;;;5032868;28;20454;-67
2022/03/27 10:35:44;;;;;;;14.20;9.00;;;17.50;93.60;;;;;;5036948;28;20447;-67
2022/03/27 10:38:42;;;;;;;12.57;8.73;;;17.60;93.00;;;;;;5043838;28;21009;-67
2022/03/27 10:41:17;;;;;;;10.93;7.50;;;17.50;92.60;;;;;;5038598;28;20619;-69
2022/03/27 10:43:46;;;;;;;15.67;7.70;;;17.70;92.50;;;;;;5025568;28;20475;-69
2022/03/27 10:46:23;;;;;;;11.67;8.60;;;17.80;92.50;;;;;;5007407;28;20475;-69
2022/03/27 10:48:51;;;;;;;10.40;7.57;;;17.80;91.80;;;;;;5025287;28;20545;-70
2022/03/27 10:51:37;;;;;;;12.53;7.43;;;17.90;92.20;;;;;;5041051;28;20462;-69
2022/03/27 10:54:04;;;;;;;12.60;7.70;;;18.00;92.00;;;;;;5034631;28;20481;-69
2022/03/27 10:56:43;;;;;;;9.87;6.83;;;18.10;92.20;;;;;;5032742;28;20480;-71
2022/03/27 10:59:15;;;;;;;12.93;8.90;;;18.30;92.00;;;;;;5032708;28;20515;-68
2022/03/27 11:01:43;;;;;;;12.70;8.13;;;18.40;91.40;;;;;;5030758;28;20575;-70
2022/03/27 11:04:21;;;;;;;10.63;7.67;;;18.40;91.10;;;;;;5030315;28;20477;-68
2022/03/27 11:06:47;;;;;;;11.67;7.90;;;18.30;90.40;;;;;;5031804;28;20535;-69
2022/03/27 11:09:38;;;;;;;11.53;7.87;;;18.30;90.30;;;;;;5026807;28;20456;-71
2022/03/27 11:12:29;;;;;;;8.87;6.20;;;18.30;90.20;;;;;;5029053;28;20447;-70
2022/03/27 11:14:58;;;;;;;11.60;7.90;;;18.30;90.90;;;;;;5024322;28;20447;-71
2022/03/27 11:17:32;;;;;;;10.33;7.20;;;18.40;91.20;;;;;;5044431;28;20483;-69
2022/03/27 11:19:58;;;;;;;9.30;6.20;;;18.60;90.40;;;;;;5029456;28;20473;-68
2022/03/27 11:22:47;;;;;;;9.80;6.20;;;18.70;90.60;;;;;;5012800;28;20507;-70
2022/03/27 11:25:37;;;;;;;8.80;6.20;;;18.80;90.40;;;;;;5033963;28;20451;-69
2022/03/27 11:28:03;;;;;;;7.50;5.90;;;18.90;89.30;;;;;;5037478;28;20454;-67
2022/03/27 11:30:30;;;;;;;8.93;6.70;;;19.10;87.80;;;;;;5034550;28;20878;-72
2022/03/27 11:33:18;;;;;;;5.27;4.77;;;19.30;87.10;;;;;;5027289;28;20677;-67
2022/03/27 11:36:04;;;;;;;5.73;5.07;;;19.50;87.00;;;;;;5045614;28;20989;-70
2022/03/27 11:38:32;;;;;;;5.67;4.40;;;19.70;85.80;;;;;;5013183;28;20467;-69
2022/03/27 11:41:42;;;;;;;6.07;5.30;;;19.70;85.90;;;;;;5024688;28;20483;-68
2022/03/27 11:44:17;;;;;;;7.50;4.97;;;19.70;85.60;;;;;;5026699;28;20466;-69
2022/03/27 11:46:48;;;;;;;6.80;4.90;;;19.90;84.80;;;;;;5028643;28;20470;-68
2022/03/27 11:49:15;;;;;;;15.90;5.57;;;19.90;86.00;;;;;;5039132;28;20465;-69
2022/03/27 11:51:41;;;;;;;9.70;6.80;;;19.90;82.50;;;;;;5026772;28;20471;-69
2022/03/27 11:54:21;;;;;;;6.63;5.23;;;19.80;81.20;;;;;;5033041;28;20471;-68
2022/03/27 11:56:58;;;;;;;7.13;5.40;;;19.60;79.90;;;;;;5008682;28;20456;-70
2022/03/27 11:59:26;;;;;;;9.07;5.77;;;19.40;79.90;;;;;;5035412;28;20571;-67
2022/03/27 12:02:01;;;;;;;10.03;6.57;;;19.50;82.90;;;;;;5032858;28;20550;-70
2022/03/27 12:04:28;;;;;;;8.03;5.83;;;19.60;82.40;;;;;;5023064;28;20430;-69
2022/03/27 12:06:58;;;;;;;8.80;7.70;;;19.80;81.80;;;;;;5033039;28;20443;-69
2022/03/27 12:09:25;;;;;;;6.80;5.70;;;19.60;80.00;;;;;;5031437;28;20971;-68
2022/03/27 12:12:10;;;;;;;8.23;5.27;;;19.70;81.50;;;;;;5006237;28;21069;-68
2022/03/27 12:14:56;;;;;;;10.37;5.90;;;19.80;81.90;;;;;;5027558;28;20445;-68
2022/03/27 12:17:23;;;;;;;9.27;4.70;;;20.00;81.00;;;;;;5050151;28;20854;-68
2022/03/27 12:19:59;;;;;;;8.43;5.97;;;20.10;82.00;;;;;;5022292;28;20451;-68
2022/03/27 12:22:45;;;;;;;8.40;6.47;;;19.90;79.80;;;;;;5028295;28;20481;-69
2022/03/27 12:25:31;;;;;;;9.40;5.60;;;19.90;80.50;;;;;;5016701;28;20451;-69
2022/03/27 12:30:50;;;;;;;8.67;6.27;;;20.10;80.30;;;;;;5029082;28;21018;-68
2022/03/27 12:33:24;;;;;;;10.10;6.67;;;20.10;79.50;;;;;;5026596;28;20459;-68
2022/03/27 12:36:06;;;;;;;9.13;5.93;;;20.10;79.20;;;;;;5037478;28;20466;-67
2022/03/27 12:38:34;;;;;;;9.43;6.70;;;19.80;78.40;;;;;;5027553;28;20455;-68
2022/03/27 12:41:02;;;;;;;6.07;4.70;;;19.90;79.90;;;;;;5054817;28;20451;-67
2022/03/27 12:43:28;;;;;;;9.70;5.70;;;20.00;79.70;;;;;;5038999;28;20470;-69
2022/03/27 12:45:55;;;;;;;8.10;5.30;;;20.10;80.50;;;;;;5046755;28;20463;-68
2022/03/27 12:48:23;;;;;;;9.27;6.77;;;20.30;80.00;;;;;;5027033;28;20633;-69
2022/03/27 12:50:54;;;;;;;8.90;6.37;;;20.20;78.20;;;;;;5018936;28;20507;-69
2022/03/27 12:53:20;;;;;;;10.27;7.13;;;20.10;78.00;;;;;;5035753;28;20494;-68
2022/03/27 12:55:53;;;;;;;10.83;5.30;;;20.00;78.80;;;;;;5028637;28;20971;-68